Time;durP1;ratioP1;P1;durP2;ratioP2;P2;SDS_P1;SDS_P2;PMS_P1;PMS_P2;Temp;Humidity;BMP_temperature;BMP_pressure;BME280_temperature;BME280_humidity;BME280_pressure;Samples;Min_cycle;Max_cycle;Signal;HPM_P1;HPM_P2
2021/09/29 00:02:11;;;;;;;;;;;;;;;10.20;78.89;98657.03;1620346;87;20244;-87
2021/09/29 00:04:37;;;;;;;;;;;;;;;10.10;78.85;98654.11;1626957;87;20285;-87
2021/09/29 00:07:03;;;;;;;;;;;;;;;10.08;78.80;98654.70;1615554;87;20234;-87
2021/09/29 00:09:29;;;;;;;;;;;;;;;9.99;78.80;98651.34;1620304;87;26059;-87
2021/09/29 00:11:55;;;;;;;;;;;;;;;9.92;78.77;98648.31;1620626;87;20333;-85
2021/09/29 00:14:21;;;;;;;;;;;;;;;9.94;78.79;98650.34;1615691;87;20285;-86
2021/09/29 00:16:47;;;;;;;;;;;;;;;10.03;78.84;98641.09;1626774;87;25521;-86
2021/09/29 00:19:13;;;;;;;;;;;;;;;9.99;78.90;98640.42;1620246;87;21991;-86
2021/09/29 00:21:39;;;;;;;;;;;;;;;9.94;78.89;98637.73;1619574;87;20796;-86
2021/09/29 00:24:06;;;;;;;;;;;;;;;9.91;78.87;98635.33;1617557;87;20277;-86
2021/09/29 00:26:32;;;;;;;;;;;;;;;9.80;78.85;98633.87;1619340;87;20652;-83
2021/09/29 00:28:58;;;;;;;;;;;;;;;9.76;78.81;98632.39;1617277;87;24710;-83
2021/09/29 00:31:36;;;;;;;;;;;;;;;9.78;78.76;98630.50;1619715;87;20840;-83
2021/09/29 00:34:49;;;;;;;;;;;;;;;9.92;78.81;98639.16;1617571;87;26894;-83
2021/09/29 00:36:29;;;;;;;;;;;;;;;10.06;78.80;98642.19;1622186;87;24642;-83
2021/09/29 00:38:56;;;;;;;;;;;;;;;10.12;78.77;98633.11;1619095;87;20168;-82
2021/09/29 00:41:22;;;;;;;;;;;;;;;10.05;78.73;98632.66;1614196;87;24740;-82
2021/09/29 00:43:48;;;;;;;;;;;;;;;9.95;78.70;98634.19;1622230;87;22067;-82
2021/09/29 00:46:14;;;;;;;;;;;;;;;9.84;78.68;98634.03;1634086;87;20992;-82
2021/09/29 00:48:40;;;;;;;;;;;;;;;9.75;78.67;98638.55;1658888;85;20250;-82
2021/09/29 00:51:06;;;;;;;;;;;;;;;9.71;78.62;98636.58;1625741;87;20259;-82
2021/09/29 00:53:32;;;;;;;;;;;;;;;9.69;78.61;98631.94;1627590;86;24301;-81
2021/09/29 00:55:58;;;;;;;;;;;;;;;9.80;78.60;98631.25;1629450;87;22067;-82
2021/09/29 00:58:24;;;;;;;;;;;;;;;9.86;78.64;98631.70;1631288;87;21029;-83
2021/09/29 01:00:50;;;;;;;;;;;;;;;9.74;78.63;98627.72;1622628;87;20297;-83
2021/09/29 01:03:17;;;;;;;;;;;;;;;9.58;78.58;98627.84;1628978;87;20261;-83
2021/09/29 01:05:44;;;;;;;;;;;;;;;9.42;78.50;98624.05;1631482;87;25526;-83
2021/09/29 01:08:13;;;;;;;;;;;;;;;9.32;78.45;98624.25;1631165;86;23241;-83
2021/09/29 01:10:41;;;;;;;;;;;;;;;9.30;78.41;98616.97;1633080;87;26048;-83
2021/09/29 01:13:11;;;;;;;;;;;;;;;9.43;78.46;98614.45;1625061;87;25279;-83
2021/09/29 01:15:45;;;;;;;;;;;;;;;9.61;78.50;98610.20;1631928;87;20275;-83
2021/09/29 01:18:13;;;;;;;;;;;;;;;9.75;78.55;98610.64;1629072;87;25020;-83
2021/09/29 01:20:41;;;;;;;;;;;;;;;9.81;78.58;98601.11;1629256;87;21961;-84
2021/09/29 01:23:11;;;;;;;;;;;;;;;9.84;78.60;98603.52;1627923;87;26900;-86
2021/09/29 01:25:53;;;;;;;;;;;;;;;9.81;78.60;98598.49;1634858;87;24513;-86
2021/09/29 01:28:20;;;;;;;;;;;;;;;9.79;78.60;98593.82;1630714;86;20239;-87
2021/09/29 01:30:46;;;;;;;;;;;;;;;9.73;78.59;98592.06;1630883;87;24881;-87
2021/09/29 01:33:14;;;;;;;;;;;;;;;9.61;78.54;98584.06;1624921;87;21973;-82
2021/09/29 01:35:41;;;;;;;;;;;;;;;9.66;78.52;98592.91;1630100;86;26289;-82
2021/09/29 01:38:07;;;;;;;;;;;;;;;9.75;78.50;98583.67;1629419;87;24535;-82
2021/09/29 01:40:39;;;;;;;;;;;;;;;9.81;78.47;98580.66;1622684;87;20469;-86
2021/09/29 01:43:05;;;;;;;;;;;;;;;9.81;78.43;98585.42;1620839;87;25628;-86
2021/09/29 01:45:33;;;;;;;;;;;;;;;9.78;78.38;98588.68;1652037;85;20344;-86
2021/09/29 01:47:59;;;;;;;;;;;;;;;9.72;78.33;98579.45;1635450;87;26032;-87
2021/09/29 01:50:26;;;;;;;;;;;;;;;9.55;78.30;98574.00;1624446;87;24424;-87
2021/09/29 01:52:53;;;;;;;;;;;;;;;9.36;78.27;98580.48;1629989;87;20494;-87
2021/09/29 01:55:20;;;;;;;;;;;;;;;9.26;78.20;98584.15;1626808;87;24834;-87
2021/09/29 01:57:47;;;;;;;;;;;;;;;9.36;78.23;98587.02;1666920;85;21921;-87
2021/09/29 02:00:13;;;;;;;;;;;;;;;9.37;78.23;98580.41;1627979;87;26080;-87
2021/09/29 02:02:43;;;;;;;;;;;;;;;9.29;78.21;98587.02;1636585;87;24534;-87
2021/09/29 02:05:09;;;;;;;;;;;;;;;9.35;78.21;98580.95;1640070;85;20326;-87
2021/09/29 02:07:35;;;;;;;;;;;;;;;9.45;78.23;98581.20;1631085;85;25376;-82
2021/09/29 02:10:03;;;;;;;;;;;;;;;9.59;78.25;98579.89;1629074;87;20325;-82
2021/09/29 02:12:30;;;;;;;;;;;;;;;9.66;78.26;98583.77;1634493;87;26952;-82
2021/09/29 02:14:56;;;;;;;;;;;;;;;9.52;78.27;98578.13;1623585;87;24401;-82
2021/09/29 02:17:23;;;;;;;;;;;;;;;9.33;78.23;98576.78;1627119;87;21236;-82
2021/09/29 02:19:49;;;;;;;;;;;;;;;9.24;78.18;98573.79;1634317;86;25414;-82
2021/09/29 02:22:16;;;;;;;;;;;;;;;9.36;78.17;98575.27;1627329;87;21886;-82
2021/09/29 02:24:44;;;;;;;;;;;;;;;9.41;78.16;98575.81;1632327;85;26025;-82
2021/09/29 02:27:10;;;;;;;;;;;;;;;9.49;78.15;98573.58;1632590;86;24577;-86
2021/09/29 02:29:36;;;;;;;;;;;;;;;9.36;78.12;98568.27;1633787;87;20391;-83
2021/09/29 02:32:08;;;;;;;;;;;;;;;9.16;78.10;98569.99;1631153;87;20254;-83
2021/09/29 02:34:34;;;;;;;;;;;;;;;8.96;78.06;98574.27;1630874;87;22174;-83
2021/09/29 02:37:00;;;;;;;;;;;;;;;8.99;78.02;98575.41;1638786;87;21127;-83
2021/09/29 02:39:25;;;;;;;;;;;;;;;8.96;78.06;98579.03;1633971;87;20270;-83
2021/09/29 02:41:52;;;;;;;;;;;;;;;8.96;78.06;98579.03;1630307;87;20227;-83
2021/09/29 02:44:22;;;;;;;;;;;;;;;9.02;78.10;98576.05;1631077;87;20629;-86
2021/09/29 02:46:45;;;;;;;;;;;;;;;9.04;78.16;98578.57;1635985;85;21967;-87
2021/09/29 02:49:11;;;;;;;;;;;;;;;8.96;78.16;98579.03;1630905;87;21000;-86
2021/09/29 02:51:39;;;;;;;;;;;;;;;8.84;78.14;98571.13;1630381;87;24497;-86
2021/09/29 02:54:05;;;;;;;;;;;;;;;8.75;78.12;98575.11;1632760;86;20496;-86
2021/09/29 02:56:32;;;;;;;;;;;;;;;8.79;78.11;98571.38;1623808;87;20558;-86
2021/09/29 02:58:58;;;;;;;;;;;;;;;8.72;78.13;98570.09;1600982;87;22464;-86
2021/09/29 03:01:24;;;;;;;;;;;;;;;8.63;78.13;98571.46;1630422;87;26008;-83
2021/09/29 03:03:50;;;;;;;;;;;;;;;8.63;78.14;98571.92;1633534;87;20268;-87
2021/09/29 03:06:17;;;;;;;;;;;;;;;8.65;78.16;98567.00;1627273;87;20255;-83
2021/09/29 03:08:43;;;;;;;;;;;;;;;8.61;78.20;98567.28;1625752;87;24831;-83
2021/09/29 03:11:10;;;;;;;;;;;;;;;8.55;78.22;98560.66;1625431;87;22849;-86
2021/09/29 03:13:36;;;;;;;;;;;;;;;8.50;78.24;98560.56;1622190;87;26003;-82
2021/09/29 03:16:02;;;;;;;;;;;;;;;8.48;78.27;98556.73;1629878;87;25365;-84
2021/09/29 03:18:28;;;;;;;;;;;;;;;8.47;78.31;98557.66;1622318;86;20401;-84
2021/09/29 03:20:54;;;;;;;;;;;;;;;8.53;78.37;98559.06;1627352;87;25779;-83
2021/09/29 03:23:20;;;;;;;;;;;;;;;8.63;78.44;98562.80;1629481;87;21943;-82
2021/09/29 03:25:46;;;;;;;;;;;;;;;8.72;78.56;98558.34;1628696;87;21777;-82
2021/09/29 03:28:12;;;;;;;;;;;;;;;8.65;78.59;98553.95;1627920;87;24480;-82
2021/09/29 03:30:38;;;;;;;;;;;;;;;8.54;78.58;98558.13;1630950;87;20812;-82
2021/09/29 03:33:06;;;;;;;;;;;;;;;8.47;78.57;98556.35;1625292;86;20288;-82
2021/09/29 03:35:35;;;;;;;;;;;;;;;8.41;78.56;98555.41;1616922;87;22032;-81
2021/09/29 03:38:01;;;;;;;;;;;;;;;8.38;78.55;98552.99;1628588;87;26085;-87
2021/09/29 03:40:27;;;;;;;;;;;;;;;8.52;78.61;98553.00;1637219;87;20265;-87
2021/09/29 03:42:53;;;;;;;;;;;;;;;8.67;78.65;98548.16;1627775;87;20271;-87
2021/09/29 03:45:19;;;;;;;;;;;;;;;8.66;78.75;98551.73;1635999;87;24755;-87
2021/09/29 03:47:45;;;;;;;;;;;;;;;8.66;78.77;98553.03;1619622;87;20238;-87
2021/09/29 03:50:12;;;;;;;;;;;;;;;8.73;78.81;98547.80;1616715;87;26224;-87
2021/09/29 03:52:38;;;;;;;;;;;;;;;8.82;78.88;98546.42;1623067;87;25137;-86
2021/09/29 03:55:04;;;;;;;;;;;;;;;8.88;78.90;98547.81;1616256;87;20302;-87
2021/09/29 03:57:37;;;;;;;;;;;;;;;8.97;78.94;98547.24;1617748;87;25545;-86
2021/09/29 04:00:05;;;;;;;;;;;;;;;9.09;78.98;98540.80;1623001;87;22171;-82
2021/09/29 04:02:31;;;;;;;;;;;;;;;9.14;78.98;98536.13;1620227;86;26067;-82
2021/09/29 04:04:57;;;;;;;;;;;;;;;9.13;78.99;98534.92;1614332;87;24472;-81
2021/09/29 04:07:24;;;;;;;;;;;;;;;9.16;79.01;98534.74;1624200;86;20580;-87
2021/09/29 04:09:50;;;;;;;;;;;;;;;9.17;79.01;98534.62;1622515;87;24786;-86
2021/09/29 04:12:16;;;;;;;;;;;;;;;9.13;78.97;98532.30;1623065;87;22081;-87
2021/09/29 04:14:43;;;;;;;;;;;;;;;9.01;78.94;98535.20;1617265;87;26256;-87
2021/09/29 04:17:08;;;;;;;;;;;;;;;9.03;78.89;98536.42;1621419;87;20281;-87
2021/09/29 04:19:40;;;;;;;;;;;;;;;9.12;78.85;98534.08;1615166;87;20543;-87
2021/09/29 04:22:10;;;;;;;;;;;;;;;9.10;78.81;98528.59;1622475;87;24784;-83
2021/09/29 04:24:44;;;;;;;;;;;;;;;9.14;78.79;98531.38;1620316;87;22039;-87
2021/09/29 04:27:11;;;;;;;;;;;;;;;9.11;78.78;98528.97;1621506;87;26047;-87
2021/09/29 04:29:37;;;;;;;;;;;;;;;9.10;78.74;98529.44;1612816;87;24422;-87
2021/09/29 04:32:03;;;;;;;;;;;;;;;9.17;78.74;98532.02;1618633;87;20176;-87
2021/09/29 04:34:29;;;;;;;;;;;;;;;9.23;78.70;98529.02;1621706;87;24804;-87
2021/09/29 04:36:55;;;;;;;;;;;;;;;9.21;78.67;98533.98;1623918;87;22121;-87
2021/09/29 04:39:21;;;;;;;;;;;;;;;9.22;78.67;98534.33;1619939;87;25980;-87
2021/09/29 04:41:47;;;;;;;;;;;;;;;9.22;78.64;98535.64;1619751;87;24568;-86
2021/09/29 04:44:13;;;;;;;;;;;;;;;9.17;78.60;98537.23;1617579;87;20418;-86
2021/09/29 04:46:39;;;;;;;;;;;;;;;9.04;78.50;98544.17;1625354;87;20227;-86
2021/09/29 04:49:05;;;;;;;;;;;;;;;9.00;78.41;98546.58;1626136;87;22010;-82
2021/09/29 04:51:32;;;;;;;;;;;;;;;9.02;78.37;98549.09;1627591;87;21917;-82
2021/09/29 04:53:58;;;;;;;;;;;;;;;9.04;78.42;98552.47;1630988;87;24466;-82
2021/09/29 04:56:24;;;;;;;;;;;;;;;9.06;78.42;98550.12;1626488;85;20285;-82
2021/09/29 04:58:50;;;;;;;;;;;;;;;9.03;78.43;98550.78;1630247;85;20270;-82
2021/09/29 05:01:18;;;;;;;;;;;;;;;8.90;78.44;98554.60;1623471;87;20266;-82
2021/09/29 05:03:44;;;;;;;;;;;;;;;8.87;78.45;98564.40;1615646;87;26014;-82
2021/09/29 05:06:13;;;;;;;;;;;;;;;8.88;78.49;98563.47;1634910;87;24602;-82
2021/09/29 05:08:39;;;;;;;;;;;;;;;8.90;78.51;98565.50;1634414;87;20184;-86
2021/09/29 05:11:07;;;;;;;;;;;;;;;8.86;78.53;98561.41;1630398;87;20255;-86
2021/09/29 05:13:33;;;;;;;;;;;;;;;8.77;78.53;98559.75;1629653;87;21995;-86
2021/09/29 05:16:00;;;;;;;;;;;;;;;8.73;78.53;98561.30;1622320;87;26031;-86
2021/09/29 05:18:26;;;;;;;;;;;;;;;8.72;78.57;98562.27;1624332;85;24463;-82
2021/09/29 05:20:53;;;;;;;;;;;;;;;8.68;78.62;98568.11;1625500;87;20323;-82
2021/09/29 05:23:19;;;;;;;;;;;;;;;8.61;78.63;98565.98;1623581;87;25408;-87
2021/09/29 05:25:46;;;;;;;;;;;;;;;8.60;78.63;98565.14;1621295;87;22705;-86
2021/09/29 05:28:13;;;;;;;;;;;;;;;8.71;78.72;98565.34;1623224;87;26102;-86
2021/09/29 05:30:39;;;;;;;;;;;;;;;8.82;78.80;98567.30;1627447;87;24840;-84
2021/09/29 05:33:05;;;;;;;;;;;;;;;8.85;78.87;98572.31;1625520;87;20240;-86
2021/09/29 05:35:31;;;;;;;;;;;;;;;8.92;78.94;98571.48;1629104;87;20752;-86
2021/09/29 05:37:57;;;;;;;;;;;;;;;9.07;79.02;98574.45;1632643;87;20274;-86
2021/09/29 05:40:23;;;;;;;;;;;;;;;9.19;79.11;98576.31;1618833;87;20962;-86
2021/09/29 05:42:49;;;;;;;;;;;;;;;9.28;79.18;98574.42;1622470;87;20313;-86
2021/09/29 05:45:15;;;;;;;;;;;;;;;9.28;79.25;98575.73;1623571;87;20317;-84
2021/09/29 05:47:41;;;;;;;;;;;;;;;9.34;79.30;98572.74;1627378;86;25615;-83
2021/09/29 05:50:07;;;;;;;;;;;;;;;9.30;79.35;98569.95;1615344;87;22020;-83
2021/09/29 05:52:33;;;;;;;;;;;;;;;9.36;79.42;98582.64;1613872;87;26187;-83
2021/09/29 05:54:59;;;;;;;;;;;;;;;9.43;79.48;98581.80;1622939;87;20274;-82
2021/09/29 05:57:25;;;;;;;;;;;;;;;9.44;79.54;98585.59;1616896;87;20230;-82
2021/09/29 05:59:51;;;;;;;;;;;;;;;9.50;79.60;98581.30;1615164;87;20892;-83
2021/09/29 06:02:18;;;;;;;;;;;;;;;9.49;79.67;98583.52;1613366;87;20326;-82
2021/09/29 06:04:43;;;;;;;;;;;;;;;9.56;79.71;98581.38;1620226;87;26662;-82
2021/09/29 06:07:11;;;;;;;;;;;;;;;9.59;79.75;98579.42;1621362;87;24516;-82
2021/09/29 06:09:40;;;;;;;;;;;;;;;9.69;79.83;98582.75;1612818;87;20231;-82
2021/09/29 06:12:07;;;;;;;;;;;;;;;9.79;79.89;98578.60;1625298;87;24816;-82
2021/09/29 06:14:34;;;;;;;;;;;;;;;9.78;79.94;98584.30;1614402;87;22082;-82
2021/09/29 06:17:12;;;;;;;;;;;;;;;9.63;79.96;98582.67;1616045;87;26022;-87
2021/09/29 06:19:31;;;;;;;;;;;;;;;9.52;79.98;98585.13;1625750;87;24484;-87
2021/09/29 06:21:57;;;;;;;;;;;;;;;9.52;80.01;98584.66;1620904;87;20261;-87
2021/09/29 06:24:23;;;;;;;;;;;;;;;9.63;80.05;98586.13;1616447;87;25620;-87
2021/09/29 06:26:49;;;;;;;;;;;;;;;9.73;80.13;98588.14;1611816;87;20312;-87
2021/09/29 06:29:15;;;;;;;;;;;;;;;9.83;80.20;98587.45;1614047;87;21051;-84
2021/09/29 06:31:41;;;;;;;;;;;;;;;9.92;80.28;98592.11;1618343;87;24533;-84
2021/09/29 06:34:07;;;;;;;;;;;;;;;9.91;80.32;98594.34;1618351;87;20231;-84
2021/09/29 06:36:33;;;;;;;;;;;;;;;9.91;80.39;98591.73;1620874;87;20255;-84
2021/09/29 06:38:59;;;;;;;;;;;;;;;9.93;80.47;98592.91;1623646;87;20776;-87
2021/09/29 06:41:25;;;;;;;;;;;;;;;9.91;80.52;98584.36;1622441;87;21198;-82
2021/09/29 06:43:51;;;;;;;;;;;;;;;9.93;80.56;98581.99;1619737;87;20338;-82
2021/09/29 06:46:17;;;;;;;;;;;;;;;10.04;80.63;98590.45;1616251;87;20289;-82
2021/09/29 06:48:43;;;;;;;;;;;;;;;10.13;80.68;98591.17;1620842;87;20765;-82
2021/09/29 06:51:09;;;;;;;;;;;;;;;10.14;80.73;98593.32;1622583;87;20330;-83
2021/09/29 06:53:35;;;;;;;;;;;;;;;10.03;80.76;98588.80;1623822;87;22021;-88
2021/09/29 06:56:05;;;;;;;;;;;;;;;9.96;80.77;98586.20;1627104;87;20259;-87
2021/09/29 06:58:31;;;;;;;;;;;;;;;9.92;80.79;98588.19;1626600;87;20516;-87
2021/09/29 07:00:56;;;;;;;;;;;;;;;9.93;80.84;98585.08;1630035;87;20480;-87
2021/09/29 07:03:24;;;;;;;;;;;;;;;9.89;80.87;98579.69;1629362;87;21637;-82
2021/09/29 07:05:55;;;;;;;;;;;;;;;9.78;80.89;98580.38;1629122;85;26167;-82
2021/09/29 07:08:19;;;;;;;;;;;;;;;9.74;80.91;98581.98;1618175;87;24589;-87
2021/09/29 07:10:45;;;;;;;;;;;;;;;9.78;80.96;98582.15;1628675;87;20218;-87
2021/09/29 07:13:11;;;;;;;;;;;;;;;9.76;80.99;98586.66;1631435;87;20691;-87
2021/09/29 07:15:39;;;;;;;;;;;;;;;9.73;81.06;98583.75;1627364;87;20824;-87
2021/09/29 07:18:09;;;;;;;;;;;;;;;9.65;81.11;98580.81;1631911;87;25592;-87
2021/09/29 07:20:35;;;;;;;;;;;;;;;9.66;81.14;98587.22;1622788;87;24660;-87
2021/09/29 07:23:03;;;;;;;;;;;;;;;9.72;81.21;98579.92;1633950;86;20481;-87
2021/09/29 07:25:30;;;;;;;;;;;;;;;9.76;81.31;98578.81;1626211;87;24861;-87
2021/09/29 07:27:57;;;;;;;;;;;;;;;9.82;81.39;98576.62;1621695;87;22010;-87
2021/09/29 07:30:23;;;;;;;;;;;;;;;9.82;81.49;98577.12;1634434;87;26072;-82
2021/09/29 07:32:51;;;;;;;;;;;;;;;9.84;81.57;98579.14;1626888;85;24681;-82
2021/09/29 07:35:17;;;;;;;;;;;;;;;9.93;81.69;98579.38;1623486;87;20242;-82
2021/09/29 07:37:44;;;;;;;;;;;;;;;10.00;81.79;98577.21;1605484;87;39430;-83
2021/09/29 07:40:10;;;;;;;;;;;;;;;10.08;81.87;98581.48;1629105;87;21990;-83
2021/09/29 07:42:39;;;;;;;;;;;;;;;10.04;81.95;98579.98;1637897;87;26077;-82
2021/09/29 07:45:05;;;;;;;;;;;;;;;10.08;82.03;98575.80;1620650;87;25093;-82
2021/09/29 07:47:31;;;;;;;;;;;;;;;10.10;82.09;98574.36;1636663;87;20183;-82
2021/09/29 07:49:57;;;;;;;;;;;;;;;10.16;82.17;98572.69;1624197;87;24821;-82
2021/09/29 07:52:23;;;;;;;;;;;;;;;10.16;82.21;98571.38;1631473;87;20325;-82
2021/09/29 07:54:50;;;;;;;;;;;;;;;10.24;82.28;98569.58;1631234;85;21058;-86
2021/09/29 07:57:16;;;;;;;;;;;;;;;10.26;82.35;98571.13;1634236;85;24407;-86
2021/09/29 07:59:42;;;;;;;;;;;;;;;10.29;82.42;98564.88;1629966;87;20297;-86
2021/09/29 08:02:08;;;;;;;;;;;;;;;10.26;82.49;98564.59;1634250;87;24804;-86
2021/09/29 08:04:37;;;;;;;;;;;;;;;10.25;82.51;98566.03;1626360;87;22037;-86
2021/09/29 08:07:03;;;;;;;;;;;;;;;10.27;82.55;98558.43;1635839;87;25963;-82
2021/09/29 08:09:29;;;;;;;;;;;;;;;10.31;82.60;98557.77;1637043;87;24526;-82
2021/09/29 08:11:55;;;;;;;;;;;;;;;10.39;82.68;98560.70;1639869;87;20694;-82
2021/09/29 08:14:23;;;;;;;;;;;;;;;10.39;82.73;98565.47;1629001;87;25483;-82
2021/09/29 08:16:50;;;;;;;;;;;;;;;10.52;82.81;98562.03;1622380;87;21980;-81
2021/09/29 08:19:16;;;;;;;;;;;;;;;10.60;82.90;98565.80;1634392;87;26690;-82
2021/09/29 08:21:44;;;;;;;;;;;;;;;10.71;82.99;98568.98;1629302;87;20890;-81
2021/09/29 08:24:14;;;;;;;;;;;;;;;10.81;83.08;98569.56;1631762;87;20270;-83
2021/09/29 08:26:55;;;;;;;;;;;;;;;10.94;83.17;98573.49;1627977;87;24795;-82
2021/09/29 08:32:06;;;;;;;;;;;;;;;11.02;83.31;98565.12;1628799;87;26211;-86
2021/09/29 08:34:35;;;;;;;;;;;;;;;10.99;83.34;98566.63;1630587;87;24634;-86
2021/09/29 08:47:24;;;;;;;;;;;;;;;11.49;83.55;98556.52;1633748;87;24441;-86
2021/09/29 08:49:58;;;;;;;;;;;;;;;11.52;83.61;98557.59;1620127;87;20359;-86
2021/09/29 08:55:14;;;;;;;;;;;;;;;11.49;83.57;98553.42;1628302;87;22012;-86
2021/09/29 09:16:39;;;;;;;;;;;;;;;11.88;83.81;98537.09;1607276;88;20517;-83
2021/09/29 09:19:08;;;;;;;;;;;;;;;11.82;83.76;98535.77;1609393;88;24864;-82
2021/09/29 09:21:36;;;;;;;;;;;;;;;11.87;83.70;98541.50;1619497;87;22096;-82
2021/09/29 09:24:04;;;;;;;;;;;;;;;11.94;83.70;98540.59;1626196;87;25442;-81
2021/09/29 09:26:31;;;;;;;;;;;;;;;11.99;83.70;98542.39;1618187;86;25366;-82
2021/09/29 09:29:04;;;;;;;;;;;;;;;12.06;83.71;98545.74;1617278;86;20493;-82
2021/09/29 09:31:31;;;;;;;;;;;;;;;12.13;83.70;98548.75;1622597;85;24366;-82
2021/09/29 09:33:59;;;;;;;;;;;;;;;12.28;83.71;98548.08;1617760;87;22015;-81
2021/09/29 09:36:27;;;;;;;;;;;;;;;12.36;83.74;98544.41;1613497;86;26053;-82
2021/09/29 09:38:54;;;;;;;;;;;;;;;12.45;83.74;98542.40;1623085;85;24376;-83
2021/09/29 09:41:21;;;;;;;;;;;;;;;12.57;83.76;98551.97;1626573;87;20354;-83
2021/09/29 09:44:01;;;;;;;;;;;;;;;12.72;83.80;98547.33;1621204;87;24819;-86
2021/09/29 09:46:27;;;;;;;;;;;;;;;12.83;83.83;98552.13;1635978;86;22147;-86
2021/09/29 09:49:09;;;;;;;;;;;;;;;12.95;83.87;98552.97;1629891;86;25985;-86
2021/09/29 09:51:49;;;;;;;;;;;;;;;13.07;83.89;98549.40;1626062;86;24528;-86
2021/09/29 09:54:15;;;;;;;;;;;;;;;13.21;83.92;98537.34;1625243;85;20355;-87
2021/09/29 09:56:45;;;;;;;;;;;;;;;13.31;83.93;98544.86;1622430;86;24836;-86
2021/09/29 09:59:09;;;;;;;;;;;;;;;13.44;83.96;98543.41;1624467;86;21975;-87
2021/09/29 10:01:35;;;;;;;;;;;;;;;13.51;83.96;98540.66;1625898;86;26007;-87
2021/09/29 10:04:11;;;;;;;;;;;;;;;13.62;83.94;98534.54;1624272;86;20338;-86
2021/09/29 10:06:38;;;;;;;;;;;;;;;13.69;83.90;98533.90;1624528;86;20212;-82
2021/09/29 10:09:28;;;;;;;;;;;;;;;13.75;83.83;98532.09;1623429;86;24838;-82
2021/09/29 10:11:58;;;;;;;;;;;;;;;13.78;83.76;98528.39;1624400;86;21967;-82
2021/09/29 10:14:36;;;;;;;;;;;;;;;13.81;83.68;98526.81;1625984;85;26014;-82
2021/09/29 10:27:59;;;;;;;;;;;;;;;14.15;83.30;98526.20;1623879;86;26784;-82
2021/09/29 10:30:33;;;;;;;;;;;;;;;14.20;83.23;98531.91;1624452;86;24507;-83
2021/09/29 10:33:00;;;;;;;;;;;;;;;14.20;83.12;98534.06;1625415;86;20466;-86
2021/09/29 10:43:06;;;;;;;;;;;;;;;14.58;82.88;98528.73;1618838;86;24415;-82
2021/09/29 10:45:41;;;;;;;;;;;;;;;14.57;82.75;98529.21;1625374;86;21322;-87
2021/09/29 10:50:57;;;;;;;;;;;;;;;14.63;82.50;98532.64;1631176;86;23020;-86
2021/09/29 11:07:16;;;;;;;;;;;;;;;14.64;81.99;98522.95;1623699;86;25689;-86
2021/09/29 11:31:15;;;;;;;;;;;;;;;14.64;81.34;98517.68;1628240;86;22182;-85
2021/09/29 11:33:57;;;;;;;;;;;;;;;14.67;81.27;98520.55;1630580;86;25988;-83
2021/09/29 11:36:41;;;;;;;;;;;;;;;14.67;81.19;98515.28;1630236;86;24426;-82
2021/09/29 12:11:23;;;;;;;;;;;;;;;14.88;80.27;98517.39;1624620;86;22016;-83
2021/09/29 12:13:59;;;;;;;;;;;;;;;14.85;80.21;98517.16;1626776;86;26053;-82
2021/09/29 12:16:27;;;;;;;;;;;;;;;14.87;80.16;98513.92;1627005;86;24639;-81
2021/09/29 12:18:54;;;;;;;;;;;;;;;14.89;80.12;98513.28;1626756;86;20290;-82
2021/09/29 12:21:21;;;;;;;;;;;;;;;14.99;80.11;98516.83;1623294;86;25461;-82
2021/09/29 12:23:51;;;;;;;;;;;;;;;15.06;80.08;98518.42;1623997;86;22060;-82
2021/09/29 12:26:26;;;;;;;;;;;;;;;15.12;80.05;98527.12;1625176;88;26009;-82
2021/09/29 12:29:08;;;;;;;;;;;;;;;15.19;80.00;98524.79;1625498;86;24400;-86
2021/09/29 12:36:29;;;;;;;;;;;;;;;15.31;79.85;98511.38;1651521;85;20224;-82
2021/09/29 12:38:55;;;;;;;;;;;;;;;15.36;79.76;98522.36;1626526;86;26194;-86
2021/09/29 12:41:23;;;;;;;;;;;;;;;15.35;79.67;98519.36;1626904;86;24403;-86
2021/09/29 12:43:51;;;;;;;;;;;;;;;15.42;79.60;98514.39;1625773;86;20265;-86
2021/09/29 12:46:17;;;;;;;;;;;;;;;15.43;79.54;98519.53;1629095;86;24759;-86
2021/09/29 12:48:45;;;;;;;;;;;;;;;15.46;79.44;98517.09;1627757;86;21995;-83
2021/09/29 12:51:14;;;;;;;;;;;;;;;15.50;79.39;98515.84;1629798;86;26777;-83
2021/09/29 12:53:49;;;;;;;;;;;;;;;15.51;79.32;98520.16;1632780;86;24534;-82
2021/09/29 12:56:17;;;;;;;;;;;;;;;15.45;79.22;98528.13;1630886;86;20237;-82
2021/09/29 12:58:34;;;;;;;;;;;;;;;15.40;79.04;98530.81;1631573;86;25705;-82
2021/09/29 13:01:00;;;;;;;;;;;;;;;15.36;78.95;98524.99;1632171;86;20837;-82
2021/09/29 13:03:26;;;;;;;;;;;;;;;15.38;78.87;98526.19;1631384;86;26204;-82
2021/09/29 13:05:54;;;;;;;;;;;;;;;15.36;78.82;98519.72;1661583;84;25143;-82
2021/09/29 13:08:20;;;;;;;;;;;;;;;15.36;78.77;98524.99;1631202;86;20239;-82
2021/09/29 13:10:47;;;;;;;;;;;;;;;15.33;78.69;98525.24;1632066;86;20246;-82
2021/09/29 13:13:13;;;;;;;;;;;;;;;15.31;78.60;98517.97;1632955;86;21967;-82
2021/09/29 13:15:42;;;;;;;;;;;;;;;15.29;78.55;98520.38;1631462;86;25396;-83
2021/09/29 13:18:12;;;;;;;;;;;;;;;15.28;78.47;98528.77;1632109;86;24402;-83
2021/09/29 13:20:41;;;;;;;;;;;;;;;15.28;78.44;98530.09;1631654;86;20294;-83
2021/09/29 13:23:11;;;;;;;;;;;;;;;15.33;78.40;98532.31;1630475;86;24845;-83
2021/09/29 13:25:57;;;;;;;;;;;;;;;15.39;78.42;98536.58;1633673;86;22027;-83
2021/09/29 13:36:38;;;;;;;;;;;;;;;15.46;78.27;98520.56;1630770;86;24247;-82
2021/09/29 13:39:08;;;;;;;;;;;;;;;15.47;78.23;98512.17;1629861;86;22020;-82
2021/09/29 13:41:34;;;;;;;;;;;;;;;15.49;78.22;98508.93;1629294;86;26080;-83
2021/09/29 13:44:02;;;;;;;;;;;;;;;15.48;78.20;98508.09;1673658;84;24663;-82
2021/09/29 13:46:28;;;;;;;;;;;;;;;15.48;78.15;98508.09;1603444;88;20164;-83
2021/09/29 13:48:56;;;;;;;;;;;;;;;15.48;78.15;98508.09;1629170;86;20220;-83
2021/09/29 13:51:25;;;;;;;;;;;;;;;15.47;78.12;98516.97;1623220;86;22061;-86
2021/09/29 13:53:50;;;;;;;;;;;;;;;15.45;78.08;98519.38;1625213;86;26117;-87
2021/09/29 13:56:18;;;;;;;;;;;;;;;15.43;78.04;98513.42;1623082;86;20260;-83
2021/09/29 14:28:35;;;;;;;;;;;;;;;15.42;78.10;98512.59;1630130;86;24854;-87
2021/09/29 14:31:03;;;;;;;;;;;;;;;15.41;78.09;98514.03;1629891;86;22089;-88
2021/09/29 14:33:35;;;;;;;;;;;;;;;15.42;78.09;98507.80;1629752;84;26018;-88
2021/09/29 14:35:56;;;;;;;;;;;;;;;15.42;78.11;98503.36;1629819;86;24846;-88
2021/09/29 14:38:22;;;;;;;;;;;;;;;15.42;78.11;98507.31;1629883;86;20307;-88
2021/09/29 14:40:50;;;;;;;;;;;;;;;15.41;78.13;98494.25;1630246;86;20199;-88
2021/09/29 14:43:17;;;;;;;;;;;;;;;15.42;78.15;98491.97;1629892;86;22027;-88
2021/09/29 14:45:43;;;;;;;;;;;;;;;15.40;78.17;98495.22;1629644;86;25998;-84
2021/09/29 14:48:09;;;;;;;;;;;;;;;15.38;78.18;98502.45;1629840;86;24432;-83
2021/09/29 14:50:35;;;;;;;;;;;;;;;15.35;78.20;98498.27;1629326;86;20251;-83
2021/09/29 14:53:01;;;;;;;;;;;;;;;15.36;78.24;98499.94;1628336;86;20770;-83
2021/09/29 14:55:29;;;;;;;;;;;;;;;15.37;78.28;98500.30;1628548;86;22874;-83
2021/09/29 14:57:55;;;;;;;;;;;;;;;15.42;78.34;98500.72;1629016;86;26133;-83
2021/09/29 15:00:21;;;;;;;;;;;;;;;15.47;78.41;98501.63;1628561;86;24428;-83
2021/09/29 15:02:49;;;;;;;;;;;;;;;15.53;78.49;98506.39;1609455;88;20499;-87
2021/09/29 15:05:15;;;;;;;;;;;;;;;15.50;78.53;98502.17;1628684;86;20363;-88
2021/09/29 15:07:42;;;;;;;;;;;;;;;15.46;78.54;98502.59;1628617;86;22058;-87
2021/09/29 15:10:08;;;;;;;;;;;;;;;15.50;78.58;98503.49;1629287;86;20944;-83
2021/09/29 15:12:35;;;;;;;;;;;;;;;15.50;78.62;98496.06;1628535;86;24584;-82
2021/09/29 15:15:25;;;;;;;;;;;;;;;15.60;78.69;98506.69;1628348;86;20221;-82
2021/09/29 15:17:59;;;;;;;;;;;;;;;15.61;78.75;98509.16;1628755;86;25323;-82
2021/09/29 15:23:07;;;;;;;;;;;;;;;15.50;78.79;98503.97;1628743;86;26021;-83
2021/09/29 15:25:38;;;;;;;;;;;;;;;15.45;78.79;98504.39;1630972;85;24311;-83
2021/09/29 15:28:31;;;;;;;;;;;;;;;15.43;78.80;98510.78;1628324;86;20231;-84
2021/09/29 15:47:02;;;;;;;;;;;;;;;15.43;79.24;98521.33;1627871;86;22846;-84
2021/09/29 15:49:33;;;;;;;;;;;;;;;15.40;79.25;98518.47;1628292;86;26238;-84
2021/09/29 15:52:04;;;;;;;;;;;;;;;15.37;79.32;98524.03;1631252;86;24644;-84
2021/09/29 15:54:55;;;;;;;;;;;;;;;15.36;79.35;98528.95;1633043;84;21003;-84
2021/09/29 16:02:46;;;;;;;;;;;;;;;15.35;79.52;98531.23;1629178;86;26227;-83
2021/09/29 16:07:46;;;;;;;;;;;;;;;15.59;79.72;98526.11;1629863;86;20225;-83
2021/09/29 16:10:28;;;;;;;;;;;;;;;15.59;79.79;98534.03;1631101;86;25451;-83